Time;durP1;ratioP1;P1;durP2;ratioP2;P2;SDS_P1;SDS_P2;PMS_P1;PMS_P2;Temp;Humidity;BMP_temperature;BMP_pressure;BME280_temperature;BME280_humidity;BME280_pressure;Samples;Min_cycle;Max_cycle;Signal;HPM_P1;HPM_P2
2022/01/09 00:02:01;;;;;;;0.73;0.70;;;;;;;4.76;89.59;96667.84;5008333;28;103909;-65
2022/01/09 00:04:29;;;;;;;1.00;0.73;;;;;;;4.85;89.41;96671.50;5013027;28;104251;-65
2022/01/09 00:06:59;;;;;;;1.00;0.60;;;;;;;4.81;89.41;96665.69;5017842;27;103237;-65
2022/01/09 00:09:28;;;;;;;0.40;0.37;;;;;;;4.85;89.98;96659.28;5010810;27;102708;-66
2022/01/09 00:11:56;;;;;;;0.70;0.70;;;;;;;4.90;90.20;96651.03;5014227;27;104321;-65
2022/01/09 00:14:24;;;;;;;1.27;0.50;;;;;;;4.95;89.96;96648.88;5012964;28;104073;-65
2022/01/09 00:16:53;;;;;;;0.70;0.60;;;;;;;4.95;90.85;96647.09;5007502;27;103204;-65
2022/01/09 00:19:23;;;;;;;0.50;0.50;;;;;;;4.95;90.73;96641.84;5010885;28;102722;-65
2022/01/09 00:21:51;;;;;;;0.33;0.33;;;;;;;4.91;91.01;96627.34;5016554;27;103223;-68
2022/01/09 00:24:24;;;;;;;0.70;0.57;;;;;;;4.95;91.20;96615.69;5013492;27;104246;-68
2022/01/09 00:26:52;;;;;;;0.53;0.50;;;;;;;4.99;91.66;96611.88;5016016;28;103254;-69
2022/01/09 00:29:22;;;;;;;0.40;0.40;;;;;;;4.91;91.84;96619.50;5015691;28;102879;-69
2022/01/09 00:31:50;;;;;;;0.40;0.40;;;;;;;4.88;92.75;96632.84;5018971;27;103700;-68
2022/01/09 00:34:18;;;;;;;0.53;0.37;;;;;;;4.95;92.73;96610.44;5008090;28;104153;-64
2022/01/09 00:36:48;;;;;;;0.60;0.40;;;;;;;4.92;93.64;96612.47;5016325;28;103056;-68
2022/01/09 00:39:16;;;;;;;0.37;0.30;;;;;;;4.92;93.56;96610.69;5018179;28;102612;-69
2022/01/09 00:41:46;;;;;;;0.37;0.37;;;;;;;4.92;93.46;96595.00;5012321;27;103089;-69
2022/01/09 00:44:14;;;;;;;0.43;0.43;;;;;;;4.85;93.88;96593.03;5017109;27;103620;-69
2022/01/09 00:46:42;;;;;;;0.60;0.40;;;;;;;4.87;94.26;96594.56;5020527;28;103228;-69
2022/01/09 00:49:10;;;;;;;0.70;0.40;;;;;;;4.88;93.84;96593.63;5016627;28;102651;-69
2022/01/09 00:51:38;;;;;;;0.40;0.40;;;;;;;4.87;93.92;96589.31;5019066;27;102753;-69
2022/01/09 00:54:06;;;;;;;0.80;0.40;;;;;;;4.87;93.95;96591.94;5015418;28;103265;-64
2022/01/09 00:56:34;;;;;;;0.33;0.33;;;;;;;4.87;93.86;96576.25;5009142;28;103186;-64
2022/01/09 00:59:05;;;;;;;0.30;0.30;;;;;;;4.86;94.69;96578.97;5010612;28;102870;-64
2022/01/09 01:01:33;;;;;;;0.30;0.30;;;;;;;4.85;93.45;96583.41;5010716;28;102813;-64
2022/01/09 01:04:04;;;;;;;0.30;0.30;;;;;;;4.88;94.00;96577.06;5008223;28;103334;-64
2022/01/09 01:06:32;;;;;;;0.30;0.30;;;;;;;4.87;93.73;96575.41;5010000;28;103329;-65
2022/01/09 01:09:00;;;;;;;0.30;0.30;;;;;;;4.88;93.84;96567.44;5025412;27;102829;-64
2022/01/09 01:11:28;;;;;;;0.30;0.30;;;;;;;4.94;93.49;96569.53;5010286;27;103817;-64
2022/01/09 01:13:56;;;;;;;0.30;0.30;;;;;;;4.95;93.05;96573.81;5008750;28;103937;-65
2022/01/09 01:16:26;;;;;;;0.30;0.30;;;;;;;4.87;93.90;96570.19;5015372;27;102966;-69
2022/01/09 01:18:57;;;;;;;0.57;0.37;;;;;;;4.82;93.80;96567.94;5017391;28;104445;-69
2022/01/09 01:21:25;;;;;;;0.23;0.23;;;;;;;4.77;94.15;96558.81;5021396;27;104147;-69
2022/01/09 01:23:53;;;;;;;0.30;0.30;;;;;;;4.83;94.16;96560.94;5012222;28;104077;-69
2022/01/09 01:26:21;;;;;;;0.20;0.20;;;;;;;4.75;94.38;96564.16;5020561;28;103178;-69
2022/01/09 01:28:51;;;;;;;0.30;0.30;;;;;;;4.75;94.65;96558.94;5019263;28;102713;-69
2022/01/09 01:31:19;;;;;;;0.73;0.30;;;;;;;4.80;94.27;96567.22;5015002;28;103905;-69
2022/01/09 01:33:49;;;;;;;0.20;0.20;;;;;;;4.84;94.10;96563.41;5014118;27;104273;-69
2022/01/09 01:36:17;;;;;;;0.57;0.20;;;;;;;4.80;94.15;96562.00;5017631;27;103234;-69
2022/01/09 01:38:45;;;;;;;0.23;0.23;;;;;;;4.85;94.59;96562.47;5018696;28;102653;-69
2022/01/09 01:41:13;;;;;;;0.20;0.20;;;;;;;4.86;94.31;96558.03;5018503;28;102798;-64
2022/01/09 01:43:41;;;;;;;0.20;0.20;;;;;;;4.91;94.37;96567.16;5011198;27;103628;-64
2022/01/09 01:46:09;;;;;;;0.20;0.20;;;;;;;4.91;94.06;96555.91;5010436;28;103266;-65
2022/01/09 01:48:37;;;;;;;0.20;0.20;;;;;;;4.93;94.17;96553.97;5010748;28;102645;-65
2022/01/09 01:51:07;;;;;;;0.30;0.20;;;;;;;4.96;94.06;96553.72;5010320;28;102725;-64
2022/01/09 01:53:35;;;;;;;0.20;0.20;;;;;;;5.01;93.55;96544.53;5011510;28;104184;-64
2022/01/09 01:56:04;;;;;;;0.30;0.30;;;;;;;4.98;93.42;96552.63;5015043;27;103191;-65
2022/01/09 01:58:34;;;;;;;0.63;0.20;;;;;;;5.03;93.26;96547.00;5009654;27;102664;-64
2022/01/09 02:01:03;;;;;;;0.53;0.30;;;;;;;5.04;93.19;96554.75;5003241;28;102775;-65
2022/01/09 02:03:31;;;;;;;0.30;0.30;;;;;;;5.06;93.39;96547.59;5010940;27;103221;-65
2022/01/09 02:06:00;;;;;;;0.30;0.30;;;;;;;5.03;93.15;96550.44;5005792;28;103295;-64
2022/01/09 02:08:31;;;;;;;0.43;0.30;;;;;;;5.14;92.61;96542.53;5011070;28;102673;-64
2022/01/09 02:11:02;;;;;;;0.27;0.27;;;;;;;5.11;92.19;96550.63;5014944;28;103554;-65
2022/01/09 02:13:31;;;;;;;0.30;0.30;;;;;;;5.10;92.72;96553.41;5013674;27;104110;-64
2022/01/09 02:16:01;;;;;;;0.23;0.23;;;;;;;5.15;92.00;96559.91;5012654;27;103196;-65
2022/01/09 02:18:29;;;;;;;0.20;0.20;;;;;;;5.15;92.02;96572.16;5009423;28;102726;-65
2022/01/09 02:20:59;;;;;;;0.30;0.30;;;;;;;5.17;92.01;96563.22;5011361;28;103691;-65
2022/01/09 02:23:27;;;;;;;0.70;0.30;;;;;;;5.21;91.86;96562.00;5014392;27;103932;-65
2022/01/09 02:25:55;;;;;;;0.50;0.37;;;;;;;5.09;92.44;96565.66;5009046;27;103205;-65
2022/01/09 02:28:26;;;;;;;0.97;0.20;;;;;;;5.09;92.69;96554.34;5008689;27;102854;-64
2022/01/09 02:30:54;;;;;;;0.20;0.20;;;;;;;5.13;92.39;96556.59;5011048;28;103659;-65
2022/01/09 02:33:22;;;;;;;0.20;0.20;;;;;;;5.10;92.95;96556.84;5008494;28;103276;-65
2022/01/09 02:35:51;;;;;;;0.30;0.30;;;;;;;5.17;93.17;96557.97;5011587;28;103333;-64
2022/01/09 02:38:21;;;;;;;0.10;0.10;;;;;;;5.12;93.05;96560.16;5014299;27;103714;-64
2022/01/09 02:40:52;;;;;;;0.27;0.20;;;;;;;5.07;93.67;96556.28;5014770;28;103880;-64
2022/01/09 02:43:21;;;;;;;0.20;0.20;;;;;;;5.04;93.58;96541.66;5014527;27;103219;-65
2022/01/09 02:45:56;;;;;;;0.30;0.30;;;;;;;5.09;93.59;96546.50;5015845;27;103234;-65
2022/01/09 02:48:24;;;;;;;0.30;0.30;;;;;;;5.08;93.59;96550.88;5016395;28;102737;-65
2022/01/09 02:51:01;;;;;;;0.40;0.40;;;;;;;5.08;93.28;96558.75;5010725;28;103652;-64
2022/01/09 02:53:34;;;;;;;0.30;0.30;;;;;;;5.00;93.49;96555.94;5011565;28;104152;-64
2022/01/09 02:56:03;;;;;;;0.20;0.20;;;;;;;5.03;93.03;96560.91;5009245;27;103204;-64
2022/01/09 02:58:33;;;;;;;1.33;0.30;;;;;;;5.15;92.53;96564.31;5010081;27;102807;-65
2022/01/09 03:01:01;;;;;;;0.27;0.27;;;;;;;5.15;92.44;96565.13;5008026;28;103821;-64
2022/01/09 03:03:29;;;;;;;0.40;0.20;;;;;;;5.20;92.02;96573.44;5018582;27;103154;-65
2022/01/09 03:05:58;;;;;;;0.20;0.20;;;;;;;5.21;92.06;96575.09;5006464;28;104270;-65
2022/01/09 03:08:26;;;;;;;0.30;0.30;;;;;;;5.15;92.47;96580.84;5019843;27;102647;-65
2022/01/09 03:10:56;;;;;;;0.30;0.30;;;;;;;5.15;92.31;96580.00;5015242;27;102770;-64
2022/01/09 03:13:24;;;;;;;0.30;0.30;;;;;;;5.15;92.72;96580.84;5018587;27;104508;-64
2022/01/09 03:15:52;;;;;;;0.20;0.20;;;;;;;5.20;92.27;96577.81;5005710;28;103139;-64
2022/01/09 03:18:20;;;;;;;0.40;0.30;;;;;;;5.16;93.32;96576.44;5018134;27;102701;-64
2022/01/09 03:20:48;;;;;;;0.30;0.30;;;;;;;5.17;93.24;96578.91;5012580;28;104479;-65
2022/01/09 03:23:16;;;;;;;0.37;0.33;;;;;;;5.19;93.51;96577.00;5010655;28;103986;-65
2022/01/09 03:25:44;;;;;;;0.80;0.50;;;;;;;5.18;93.49;96575.34;5012049;28;103238;-64
2022/01/09 03:28:14;;;;;;;0.17;0.17;;;;;;;5.17;93.89;96581.53;5005772;28;102657;-64
2022/01/09 03:30:42;;;;;;;0.43;0.40;;;;;;;5.17;93.60;96576.31;5010323;27;102716;-65
2022/01/09 03:33:10;;;;;;;0.67;0.43;;;;;;;5.15;93.92;96580.84;5013838;28;103269;-65
2022/01/09 03:35:39;;;;;;;0.40;0.40;;;;;;;5.11;93.99;96589.06;5014722;27;103255;-64
2022/01/09 03:38:12;;;;;;;0.50;0.40;;;;;;;5.10;94.41;96593.50;5008079;28;102761;-64
2022/01/09 03:40:40;;;;;;;0.53;0.30;;;;;;;5.11;94.77;96584.66;5013766;27;103695;-65
2022/01/09 03:43:10;;;;;;;0.47;0.33;;;;;;;5.07;96.00;96585.06;5025943;27;104123;-64
2022/01/09 03:45:39;;;;;;;0.60;0.40;;;;;;;5.10;96.43;96588.25;5017905;28;103054;-65
2022/01/09 03:48:08;;;;;;;1.53;0.40;;;;;;;5.03;97.67;96596.72;5015144;28;103541;-64
2022/01/09 03:50:36;;;;;;;0.60;0.50;;;;;;;5.08;97.77;96605.03;5015457;27;102689;-65
2022/01/09 03:53:06;;;;;;;1.50;0.57;;;;;;;5.10;97.80;96597.88;5011565;28;103241;-64
2022/01/09 03:55:35;;;;;;;0.87;0.50;;;;;;;5.09;97.17;96604.91;5010175;28;104167;-64
2022/01/09 03:58:03;;;;;;;0.30;0.30;;;;;;;5.10;97.39;96609.19;5013728;27;102668;-64
2022/01/09 04:00:31;;;;;;;0.40;0.40;;;;;;;5.04;97.46;96604.47;5011970;28;105094;-64
2022/01/09 04:03:01;;;;;;;0.70;0.40;;;;;;;5.09;97.54;96615.38;5014567;27;103288;-64
2022/01/09 04:05:29;;;;;;;0.30;0.30;;;;;;;5.08;97.72;96605.84;5015166;28;103279;-64
2022/01/09 04:07:58;;;;;;;0.40;0.40;;;;;;;5.06;97.81;96613.00;5013055;27;102623;-64
2022/01/09 04:10:42;;;;;;;0.30;0.30;;;;;;;5.11;98.03;96613.44;5013988;27;102869;-64
2022/01/09 04:13:12;;;;;;;0.60;0.33;;;;;;;5.08;98.54;96621.56;5018770;28;103760;-64
2022/01/09 04:15:45;;;;;;;0.40;0.40;;;;;;;5.04;99.38;96620.16;5013249;28;103187;-64
2022/01/09 04:18:17;;;;;;;0.30;0.30;;;;;;;5.03;99.61;96630.75;5014760;28;103043;-64
2022/01/09 04:20:45;;;;;;;1.17;0.40;;;;;;;5.07;99.56;96630.38;5013254;28;104543;-63
2022/01/09 04:23:14;;;;;;;0.80;0.40;;;;;;;5.06;99.92;96639.19;5011092;28;104140;-64
2022/01/09 04:25:46;;;;;;;1.17;0.60;;;;;;;5.02;100.00;96648.25;5014914;28;103301;-67
2022/01/09 04:28:15;;;;;;;0.30;0.27;;;;;;;5.04;100.00;96641.09;5016102;27;102691;-68
2022/01/09 04:30:44;;;;;;;0.40;0.40;;;;;;;4.93;100.00;96648.16;5016884;28;103973;-69
2022/01/09 04:33:13;;;;;;;0.80;0.70;;;;;;;4.98;100.00;96652.06;5012288;28;103268;-68
2022/01/09 04:35:43;;;;;;;0.70;0.30;;;;;;;4.95;100.00;96656.72;5012216;28;104380;-69
2022/01/09 04:38:12;;;;;;;0.30;0.27;;;;;;;4.98;100.00;96651.22;5013411;28;103036;-64
2022/01/09 04:40:40;;;;;;;0.30;0.30;;;;;;;4.90;100.00;96667.56;5012905;28;102787;-64
2022/01/09 04:43:10;;;;;;;0.30;0.30;;;;;;;4.94;100.00;96687.28;5009190;28;105756;-63
2022/01/09 04:45:38;;;;;;;0.20;0.20;;;;;;;4.89;100.00;96707.75;5015631;27;103215;-69
2022/01/09 04:48:09;;;;;;;0.77;0.40;;;;;;;4.84;100.00;96728.22;5019019;28;102698;-69
2022/01/09 04:50:42;;;;;;;0.60;0.30;;;;;;;4.86;100.00;96744.63;5014771;28;104502;-69
2022/01/09 04:53:11;;;;;;;0.67;0.27;;;;;;;4.89;100.00;96759.25;5015819;28;103273;-69
2022/01/09 04:55:48;;;;;;;0.40;0.23;;;;;;;4.79;99.98;96767.03;5012330;28;104034;-69
2022/01/09 04:58:16;;;;;;;1.60;0.10;;;;;;;4.79;99.58;96769.63;5014524;28;102788;-69
2022/01/09 05:00:45;;;;;;;0.23;0.23;;;;;;;4.80;99.08;96779.13;5017928;27;102669;-70
2022/01/09 05:03:13;;;;;;;0.20;0.20;;;;;;;4.69;100.00;96779.16;5017129;28;103184;-70
2022/01/09 05:05:44;;;;;;;1.30;0.20;;;;;;;4.62;99.40;96785.81;5014278;28;103237;-69
2022/01/09 05:08:13;;;;;;;0.60;0.20;;;;;;;4.77;99.77;96789.03;5011119;28;103008;-70
2022/01/09 05:10:41;;;;;;;0.20;0.20;;;;;;;4.63;98.38;96808.41;5011168;27;102718;-70
2022/01/09 05:13:12;;;;;;;0.20;0.20;;;;;;;4.53;99.61;96813.53;5007665;28;104175;-70
2022/01/09 05:15:40;;;;;;;1.70;0.50;;;;;;;4.51;100.00;96819.81;5012392;27;103233;-70
2022/01/09 05:18:13;;;;;;;0.20;0.20;;;;;;;4.41;99.49;96822.31;5014902;28;102771;-70
2022/01/09 05:20:41;;;;;;;0.20;0.20;;;;;;;4.41;98.68;96840.59;5009643;28;104155;-70
2022/01/09 05:23:10;;;;;;;0.70;0.30;;;;;;;4.45;98.60;96847.28;5017558;27;104001;-70
2022/01/09 05:25:39;;;;;;;0.20;0.20;;;;;;;4.40;98.25;96859.03;5013482;28;104157;-69
2022/01/09 05:28:07;;;;;;;0.10;0.10;;;;;;;4.41;97.82;96871.97;5013519;28;103805;-70
2022/01/09 05:30:35;;;;;;;0.20;0.20;;;;;;;4.31;98.27;96878.03;5010936;28;102786;-70
2022/01/09 05:33:04;;;;;;;0.17;0.17;;;;;;;4.23;98.13;96878.63;5014896;28;103250;-69
2022/01/09 05:35:32;;;;;;;0.20;0.20;;;;;;;4.12;99.29;96885.59;5020772;27;103202;-69
2022/01/09 05:38:00;;;;;;;0.20;0.20;;;;;;;4.13;99.39;96889.91;5016865;28;102631;-69
2022/01/09 05:40:28;;;;;;;0.20;0.20;;;;;;;4.02;98.31;96896.72;5012020;28;104092;-69
2022/01/09 05:42:58;;;;;;;0.33;0.20;;;;;;;4.04;98.30;96915.72;5015446;27;104229;-69
2022/01/09 05:45:26;;;;;;;0.40;0.20;;;;;;;4.06;98.60;96921.69;5019764;27;103234;-69
2022/01/09 05:47:54;;;;;;;0.30;0.30;;;;;;;3.99;98.05;96927.47;5022915;27;103018;-69
2022/01/09 05:50:23;;;;;;;0.50;0.30;;;;;;;4.03;99.00;96935.00;5023053;27;103951;-70
2022/01/09 05:52:51;;;;;;;0.30;0.20;;;;;;;4.04;98.45;96947.09;5021936;27;103264;-70
2022/01/09 05:55:19;;;;;;;1.03;0.30;;;;;;;4.04;99.00;96952.31;5021882;28;103174;-69
2022/01/09 05:57:47;;;;;;;0.70;0.50;;;;;;;4.06;98.11;96960.91;5023066;27;102603;-69
2022/01/09 06:00:17;;;;;;;0.63;0.50;;;;;;;4.03;98.70;96965.50;5020619;28;103675;-69
2022/01/09 06:02:50;;;;;;;2.13;0.53;;;;;;;3.95;97.62;96971.31;5021169;28;104121;-70
2022/01/09 06:05:18;;;;;;;2.13;0.60;;;;;;;4.04;98.49;96978.44;5010383;28;103222;-70
2022/01/09 06:07:46;;;;;;;1.83;0.50;;;;;;;4.02;98.69;96964.66;5019728;28;102596;-70
2022/01/09 06:10:14;;;;;;;1.70;0.60;;;;;;;4.03;98.37;96987.25;5024739;27;102798;-70
2022/01/09 07:09:18;;;;;;;1.90;0.60;;;;;;;4.01;98.67;97134.66;5131280;27;103392;-75
2022/01/09 07:11:59;;;;;;;1.30;0.90;;;;;;;3.97;99.18;97134.00;5118797;27;102608;-75
2022/01/09 07:14:27;;;;;;;1.80;0.90;;;;;;;4.10;99.43;97147.03;5108370;27;102960;-75
2022/01/09 07:16:55;;;;;;;2.03;0.77;;;;;;;3.98;98.71;97155.75;5110851;27;103219;-73
2022/01/09 07:19:23;;;;;;;3.67;0.70;;;;;;;4.03;97.84;97148.44;5116930;27;102572;-73
2022/01/09 07:21:53;;;;;;;2.83;0.83;;;;;;;4.02;98.28;97158.03;5120275;27;102623;-75
2022/01/09 07:24:22;;;;;;;3.70;1.13;;;;;;;3.97;97.22;97170.59;5105532;27;102977;-75
2022/01/09 07:26:50;;;;;;;1.63;0.83;;;;;;;4.02;97.54;97168.50;5108047;27;103094;-75
2022/01/09 07:29:19;;;;;;;3.53;1.07;;;;;;;4.16;96.79;97169.28;5112966;27;102555;-74
2022/01/09 07:31:47;;;;;;;4.10;1.20;;;;;;;4.19;96.31;97179.53;5117810;27;102878;-75
2022/01/09 07:34:15;;;;;;;3.07;1.60;;;;;;;4.10;94.22;97175.78;5093324;27;103165;-75
2022/01/09 07:36:43;;;;;;;3.23;1.30;;;;;;;4.21;94.44;97188.94;5122064;27;103621;-87
2022/01/09 07:39:11;;;;;;;5.03;1.50;;;;;;;4.16;93.44;97190.19;5107663;27;102629;-91
2022/01/09 07:41:41;;;;;;;3.60;1.50;;;;;;;4.22;92.88;97200.22;5120797;27;104068;-90
2022/01/09 07:44:09;;;;;;;5.70;1.50;;;;;;;4.18;92.11;97191.78;5120420;27;103720;-94
2022/01/09 07:46:38;;;;;;;5.57;1.53;;;;;;;4.18;92.36;97209.25;5125243;27;103300;-89
2022/01/09 07:49:07;;;;;;;4.53;1.40;;;;;;;4.21;90.84;97222.91;5119264;27;102756;-92
2022/01/09 07:51:35;;;;;;;4.43;1.83;;;;;;;4.18;90.31;97222.31;5121537;27;102708;-88
2022/01/09 07:54:21;;;;;;;1.70;1.10;;;;;;;4.08;89.31;97219.50;5115125;27;103233;-89
2022/01/09 07:56:51;;;;;;;4.03;1.47;;;;;;;4.19;89.87;97227.41;5119087;27;103122;-92
2022/01/09 07:59:18;;;;;;;2.80;1.23;;;;;;;4.09;90.27;97224.63;5122985;27;102636;-89
2022/01/09 08:01:51;;;;;;;4.43;1.00;;;;;;;4.09;90.28;97242.94;5121780;27;103133;-90
2022/01/09 08:04:19;;;;;;;2.40;1.00;;;;;;;4.05;89.99;97246.69;5130813;27;103343;-83
2022/01/09 08:06:48;;;;;;;3.30;1.43;;;;;;;4.09;89.42;97257.75;5115834;27;104797;-89
2022/01/09 08:09:18;;;;;;;1.97;1.10;;;;;;;4.07;89.83;97264.84;5086584;27;102678;-90
2022/01/09 08:11:46;;;;;;;6.17;1.50;;;;;;;4.19;89.25;97257.94;5092805;27;103709;-88
2022/01/09 08:14:18;;;;;;;3.70;1.27;;;;;;;4.07;89.02;97268.31;5097807;27;102885;-91
2022/01/09 08:16:45;;;;;;;2.97;1.20;;;;;;;4.06;88.29;97273.66;5098798;27;103098;-90
2022/01/09 08:19:14;;;;;;;4.20;1.73;;;;;;;4.12;88.64;97283.69;5097990;27;102639;-90
2022/01/09 08:21:42;;;;;;;3.83;1.50;;;;;;;4.10;87.00;97296.84;5105474;27;102706;-90
2022/01/09 08:24:10;;;;;;;2.90;1.30;;;;;;;4.12;87.29;97288.06;5093524;27;103232;-93
2022/01/09 08:26:38;;;;;;;6.03;1.73;;;;;;;4.11;85.51;97297.69;5104259;27;103174;-92
2022/01/09 08:29:06;;;;;;;5.90;2.17;;;;;;;4.19;84.67;97310.22;5109343;27;102704;-88
2022/01/09 08:31:35;;;;;;;6.20;1.40;;;;;;;4.24;85.70;97319.44;5104144;27;102712;-87
2022/01/09 08:34:03;;;;;;;5.53;1.30;;;;;;;4.35;85.08;97329.16;5097296;27;104020;-82
2022/01/09 08:36:33;;;;;;;5.83;1.80;;;;;;;4.31;85.01;97335.53;5106363;27;103133;-76
2022/01/09 08:39:01;;;;;;;9.30;1.80;;;;;;;4.45;84.25;97327.59;5094375;27;102598;-85
2022/01/09 08:41:29;;;;;;;4.77;1.80;;;;;;;4.45;83.68;97332.81;5101742;27;103437;-88
2022/01/09 08:43:57;;;;;;;3.83;1.57;;;;;;;4.48;83.46;97343.06;5103255;27;102739;-90
2022/01/09 08:46:25;;;;;;;6.40;1.40;;;;;;;4.52;83.36;97334.06;5108601;27;103126;-89
2022/01/09 08:48:54;;;;;;;5.13;1.60;;;;;;;4.40;82.58;97346.22;5103392;27;102956;-92
2022/01/09 08:51:22;;;;;;;6.27;1.73;;;;;;;4.52;83.37;97350.56;5103358;27;103785;-92
2022/01/09 08:53:51;;;;;;;4.43;1.80;;;;;;;4.46;82.90;97352.81;5093320;27;103172;-89
2022/01/09 08:56:20;;;;;;;4.03;1.50;;;;;;;4.57;82.39;97355.50;5094346;27;103138;-90
2022/01/09 09:01:44;;;;;;;4.00;1.53;;;;;;;4.67;81.62;97359.16;5098847;27;102748;-81
2022/01/09 09:04:14;;;;;;;5.17;2.07;;;;;;;4.70;80.53;97369.41;5099560;27;103204;-89
2022/01/09 09:06:46;;;;;;;6.67;1.70;;;;;;;4.67;80.72;97364.38;5099448;27;103526;-86
2022/01/09 09:09:14;;;;;;;5.40;2.13;;;;;;;4.70;80.74;97379.88;5100124;27;102661;-89
2022/01/09 09:11:43;;;;;;;10.40;2.20;;;;;;;4.77;78.92;97386.38;5102494;27;103024;-89
2022/01/09 09:14:10;;;;;;;6.70;2.07;;;;;;;4.96;79.58;97380.66;5107564;27;103189;-95
2022/01/09 09:16:41;;;;;;;3.07;1.60;;;;;;;4.82;79.71;97389.50;5096709;27;103131;-86
2022/01/09 09:19:13;;;;;;;6.47;2.53;;;;;;;4.88;78.79;97388.22;5104372;27;103018;-91
2022/01/09 09:21:46;;;;;;;5.90;1.50;;;;;;;4.72;78.24;97392.84;5101547;27;104114;-86
2022/01/09 09:24:13;;;;;;;6.87;1.60;;;;;;;4.87;79.23;97399.63;5094373;27;103233;-88
2022/01/09 09:26:42;;;;;;;7.47;1.73;;;;;;;4.75;80.38;97408.31;5093615;27;103770;-91
2022/01/09 09:29:11;;;;;;;5.67;1.40;;;;;;;4.75;81.48;97414.38;5098765;27;103151;-87
2022/01/09 09:31:41;;;;;;;4.70;1.40;;;;;;;4.85;82.47;97415.44;5099605;27;103417;-86
2022/01/09 09:34:14;;;;;;;5.70;1.60;;;;;;;4.81;83.41;97424.44;5100118;27;103202;-88
2022/01/09 09:36:42;;;;;;;6.50;1.80;;;;;;;4.61;84.19;97422.34;5102052;27;103230;-85
2022/01/09 09:39:12;;;;;;;3.70;1.70;;;;;;;4.59;84.87;97429.47;5103293;27;102725;-86
2022/01/09 09:41:42;;;;;;;5.23;1.60;;;;;;;4.52;85.46;97433.47;5101445;27;102806;-87
2022/01/09 09:44:12;;;;;;;3.43;1.80;;;;;;;4.64;85.40;97430.00;5085220;27;103910;-81
2022/01/09 09:46:48;;;;;;;5.57;1.50;;;;;;;4.74;86.12;97423.19;5083345;27;103127;-89
2022/01/09 09:49:18;;;;;;;4.13;1.73;;;;;;;4.79;86.27;97434.19;5094315;27;102658;-85
2022/01/09 09:51:46;;;;;;;3.50;1.40;;;;;;;4.67;87.03;97432.41;5103368;27;103668;-85
2022/01/09 09:54:14;;;;;;;3.40;1.60;;;;;;;4.91;87.16;97441.16;5098397;27;103807;-89
2022/01/09 09:56:42;;;;;;;4.53;1.70;;;;;;;5.18;85.98;97441.88;5102416;27;103137;-85
2022/01/09 09:59:10;;;;;;;3.47;1.43;;;;;;;4.94;85.56;97448.81;5099413;27;102509;-82
2022/01/09 10:01:42;;;;;;;6.77;1.97;;;;;;;4.98;86.01;97446.81;5103649;27;103740;-83
2022/01/09 10:04:10;;;;;;;5.17;1.67;;;;;;;5.23;85.19;97447.63;5091478;27;103065;-78
2022/01/09 10:06:42;;;;;;;4.23;1.80;;;;;;;5.00;85.08;97445.78;5095754;27;103136;-82
2022/01/09 10:09:12;;;;;;;8.60;1.43;;;;;;;5.07;86.14;97452.25;5095179;27;102567;-79
2022/01/09 10:11:50;;;;;;;5.70;1.63;;;;;;;5.15;86.11;97443.88;5069320;27;104141;-79
2022/01/09 10:14:20;;;;;;;4.83;1.63;;;;;;;5.22;84.87;97445.94;5082893;27;104370;-81
2022/01/09 10:17:10;;;;;;;5.43;2.83;;;;;;;5.48;85.10;97451.09;5081239;27;103160;-80
2022/01/09 10:19:45;;;;;;;5.77;1.40;;;;;;;5.43;84.29;97451.44;5078954;27;103023;-80
2022/01/09 10:22:27;;;;;;;6.07;1.93;;;;;;;5.41;84.42;97449.88;5087886;27;104299;-77
2022/01/09 10:24:56;;;;;;;7.80;2.17;;;;;;;5.66;84.43;97449.81;5093857;27;104782;-80
2022/01/09 10:27:28;;;;;;;7.67;2.20;;;;;;;5.70;83.84;97461.72;5090598;27;103116;-79
2022/01/09 10:29:56;;;;;;;4.67;1.60;;;;;;;5.48;84.12;97458.97;5103491;27;102941;-78
2022/01/09 10:32:28;;;;;;;4.77;1.30;;;;;;;5.49;85.14;97465.91;5097133;27;102622;-76
2022/01/09 10:35:08;;;;;;;5.10;1.63;;;;;;;5.15;84.21;97467.44;5089499;27;103961;-80
2022/01/09 10:37:39;;;;;;;2.93;1.37;;;;;;;5.24;85.15;97464.19;5097896;27;104024;-78
2022/01/09 10:40:10;;;;;;;3.93;1.30;;;;;;;5.21;85.60;97480.94;5099650;27;102629;-80
2022/01/09 10:42:39;;;;;;;3.90;1.47;;;;;;;5.31;86.54;97485.50;5084718;27;102605;-78
2022/01/09 10:45:18;;;;;;;4.67;1.20;;;;;;;5.18;87.73;97475.91;5094682;27;102917;-79
2022/01/09 10:47:48;;;;;;;3.20;0.90;;;;;;;4.93;89.56;97475.94;5089843;27;103640;-81
2022/01/09 10:50:29;;;;;;;3.83;1.20;;;;;;;5.14;90.01;97487.53;5094496;27;104729;-81
2022/01/09 10:53:19;;;;;;;3.47;1.23;;;;;;;5.35;88.93;97494.84;5086824;27;102510;-80
2022/01/09 10:55:48;;;;;;;4.40;1.20;;;;;;;5.67;88.21;97498.66;5088687;27;104669;-76
2022/01/09 10:58:21;;;;;;;3.07;1.40;;;;;;;5.71;87.13;97500.09;5085531;27;104118;-74
2022/01/09 11:01:07;;;;;;;4.03;1.63;;;;;;;6.21;84.70;97486.81;5094278;27;102429;-75
2022/01/09 11:03:36;;;;;;;3.70;1.50;;;;;;;6.59;84.56;97478.72;5098005;27;104063;-74
2022/01/09 11:06:04;;;;;;;4.73;1.60;;;;;;;6.55;83.24;97484.28;5100138;27;103246;-74
2022/01/09 11:08:35;;;;;;;5.40;1.40;;;;;;;6.25;83.42;97492.66;5089426;27;103143;-74
2022/01/09 11:11:08;;;;;;;3.50;1.40;;;;;;;6.22;83.82;97496.34;5094560;27;103009;-78
2022/01/09 11:13:38;;;;;;;5.33;1.53;;;;;;;6.05;82.10;97494.13;5100373;27;102629;-77
2022/01/09 11:18:53;;;;;;;3.27;1.30;;;;;;;5.93;81.99;97500.25;5097627;27;103156;-77
2022/01/09 11:21:21;;;;;;;4.73;1.40;;;;;;;6.03;82.99;97497.81;5102031;27;102505;-77
2022/01/09 11:24:08;;;;;;;5.73;1.33;;;;;;;5.63;82.85;97498.03;5086561;27;102963;-84
2022/01/09 11:26:45;;;;;;;5.20;1.30;;;;;;;5.65;84.29;97492.66;5092947;27;103241;-80
2022/01/09 11:29:16;;;;;;;4.73;1.50;;;;;;;5.54;84.38;97492.59;5100445;27;103227;-77
2022/01/09 11:31:59;;;;;;;2.97;1.17;;;;;;;5.65;84.96;97484.81;5103317;27;102521;-81
2022/01/09 11:34:35;;;;;;;2.67;1.10;;;;;;;5.60;84.08;97492.16;5079887;27;102679;-84
2022/01/09 11:37:17;;;;;;;3.60;1.30;;;;;;;5.68;83.32;97500.31;5086096;27;103183;-80
2022/01/09 11:39:49;;;;;;;2.87;1.23;;;;;;;5.77;83.39;97499.66;5092912;27;102943;-82
2022/01/09 11:42:17;;;;;;;4.07;1.23;;;;;;;5.91;83.37;97491.69;5090309;27;102762;-81
2022/01/09 11:44:46;;;;;;;5.13;1.73;;;;;;;6.17;82.39;97488.00;5095987;27;102749;-84
2022/01/09 11:47:15;;;;;;;4.00;1.33;;;;;;;6.43;81.47;97487.84;5100329;27;104095;-85
2022/01/09 11:50:08;;;;;;;4.23;1.50;;;;;;;6.33;81.63;97488.53;5109357;27;103222;-85
2022/01/09 11:52:58;;;;;;;1.67;1.10;;;;;;;6.68;81.44;97490.31;5102287;27;102520;-88
2022/01/09 11:55:42;;;;;;;4.93;1.57;;;;;;;6.69;79.92;97490.19;5094509;27;102724;-88
2022/01/09 11:58:12;;;;;;;3.90;1.60;;;;;;;6.55;79.61;97482.50;5092637;27;102527;-85
2022/01/09 12:00:43;;;;;;;4.60;1.50;;;;;;;6.43;79.75;97479.00;5095659;27;102583;-85
2022/01/09 12:03:35;;;;;;;4.17;1.23;;;;;;;6.55;78.49;97472.00;5099019;27;102559;-85
2022/01/09 12:06:06;;;;;;;3.43;1.40;;;;;;;6.41;79.21;97467.81;5097317;27;102586;-90
2022/01/09 12:09:10;;;;;;;4.47;1.23;;;;;;;6.06;78.63;97464.34;5094921;27;103149;-86
2022/01/09 12:12:07;;;;;;;3.57;1.50;;;;;;;6.38;79.12;97468.03;5101989;27;103148;-90
2022/01/09 12:15:01;;;;;;;3.17;1.30;;;;;;;6.47;79.17;97463.03;5095846;27;102570;-86
2022/01/09 12:17:43;;;;;;;4.70;1.63;;;;;;;6.50;78.37;97473.31;5101363;27;103918;-86
2022/01/09 12:20:26;;;;;;;4.10;1.10;;;;;;;6.23;77.79;97477.03;5106402;27;103890;-79
2022/01/09 12:23:04;;;;;;;2.43;1.27;;;;;;;6.39;78.20;97472.34;5093044;27;103144;-81
2022/01/09 12:25:51;;;;;;;3.57;1.47;;;;;;;6.39;78.95;97482.00;5096047;27;102481;-84
2022/01/09 12:28:38;;;;;;;4.03;1.60;;;;;;;6.39;78.80;97472.34;5091900;27;103714;-82
2022/01/09 12:31:06;;;;;;;4.73;1.70;;;;;;;6.30;78.78;97483.50;5086939;27;104480;-80
2022/01/09 12:33:49;;;;;;;4.77;2.00;;;;;;;6.31;79.41;97481.72;5096472;27;103204;-80
2022/01/09 12:36:31;;;;;;;4.27;1.77;;;;;;;6.28;78.27;97469.69;5104233;27;102851;-81
2022/01/09 12:39:03;;;;;;;4.37;1.37;;;;;;;6.57;78.62;97471.91;5099071;27;102629;-81
2022/01/09 12:41:39;;;;;;;5.57;1.40;;;;;;;6.34;78.74;97471.81;5088687;27;104290;-83
2022/01/09 12:44:09;;;;;;;3.30;1.20;;;;;;;6.76;78.28;97470.41;5092729;27;103165;-84
2022/01/09 12:46:44;;;;;;;3.83;1.47;;;;;;;6.57;77.70;97466.66;5098066;27;102845;-80
2022/01/09 12:49:15;;;;;;;8.67;1.70;;;;;;;6.46;77.66;97471.88;5092363;27;103420;-83
2022/01/09 12:51:51;;;;;;;2.80;1.30;;;;;;;6.41;76.80;97475.69;5104649;27;102535;-81
2022/01/09 12:54:22;;;;;;;6.10;1.70;;;;;;;6.39;79.52;97471.50;5086289;27;103114;-82